Time;durP1;ratioP1;P1;durP2;ratioP2;P2;SDS_P1;SDS_P2;PMS_P1;PMS_P2;Temp;Humidity;BMP_temperature;BMP_pressure;BME280_temperature;BME280_humidity;BME280_pressure;Samples;Min_cycle;Max_cycle;Signal;HPM_P1;HPM_P2
2022/03/14 00:00:12;;;;;;;4.55;3.17;;;11.90;99.90;;;;;;4992716;28;20109;-72
2022/03/14 00:02:39;;;;;;;3.50;3.13;;;11.80;99.90;;;;;;5002641;28;20015;-72
2022/03/14 00:05:05;;;;;;;4.35;3.20;;;11.90;99.90;;;;;;4991910;28;20026;-73
2022/03/14 00:07:34;;;;;;;4.78;3.40;;;11.90;99.90;;;;;;4999715;28;20025;-73
2022/03/14 00:10:01;;;;;;;3.85;2.88;;;11.80;99.90;;;;;;5006809;28;20029;-72
2022/03/14 00:12:28;;;;;;;4.30;3.33;;;11.80;99.90;;;;;;5011242;28;20056;-72
2022/03/14 00:14:56;;;;;;;4.07;3.22;;;11.80;99.90;;;;;;5010961;28;20033;-73
2022/03/14 00:17:24;;;;;;;5.03;3.47;;;11.80;99.90;;;;;;4993340;28;20409;-72
2022/03/14 00:19:50;;;;;;;4.78;3.10;;;11.80;99.90;;;;;;5002562;28;20331;-72
2022/03/14 00:22:19;;;;;;;4.07;3.10;;;11.80;99.90;;;;;;5010649;28;20394;-72
2022/03/14 00:24:45;;;;;;;4.80;3.35;;;11.80;99.90;;;;;;4993477;28;20499;-73
2022/03/14 00:27:11;;;;;;;4.35;3.50;;;11.80;99.90;;;;;;4991450;28;20041;-72
2022/03/14 00:29:36;;;;;;;4.35;3.15;;;11.80;99.90;;;;;;4974111;28;20049;-73
2022/03/14 00:32:02;;;;;;;5.18;3.53;;;11.80;99.90;;;;;;4991536;28;20040;-72
2022/03/14 00:34:28;;;;;;;4.07;3.35;;;11.80;99.90;;;;;;4991321;28;20117;-72
2022/03/14 00:36:54;;;;;;;4.90;3.42;;;11.80;99.90;;;;;;5010629;28;20029;-72
2022/03/14 00:39:20;;;;;;;4.90;3.70;;;11.80;99.90;;;;;;5003895;28;20045;-73
2022/03/14 00:41:46;;;;;;;6.22;4.00;;;11.80;99.90;;;;;;4990865;28;20117;-73
2022/03/14 00:44:12;;;;;;;5.95;3.78;;;11.70;99.90;;;;;;4992025;28;20085;-73
2022/03/14 00:46:39;;;;;;;4.78;3.70;;;11.70;99.90;;;;;;5008356;28;20426;-73
2022/03/14 00:49:04;;;;;;;4.55;3.53;;;11.70;99.90;;;;;;5002728;28;20034;-73
2022/03/14 00:51:30;;;;;;;5.53;3.40;;;11.70;99.90;;;;;;4990742;28;20030;-73
2022/03/14 00:53:55;;;;;;;4.43;3.15;;;11.70;99.90;;;;;;4991296;28;20165;-72
2022/03/14 00:56:21;;;;;;;4.03;3.40;;;11.70;99.90;;;;;;4990696;28;20034;-72
2022/03/14 00:58:47;;;;;;;5.22;3.53;;;11.70;99.90;;;;;;4994954;28;20088;-72
2022/03/14 01:01:12;;;;;;;4.25;3.55;;;11.70;99.90;;;;;;5002591;28;20102;-73
2022/03/14 01:03:38;;;;;;;6.03;3.65;;;11.70;99.90;;;;;;4991734;28;20038;-72
2022/03/14 01:06:03;;;;;;;4.88;3.72;;;11.60;99.90;;;;;;4990537;28;20054;-73
2022/03/14 01:08:29;;;;;;;5.18;3.47;;;11.60;99.90;;;;;;5002612;28;20101;-73
2022/03/14 01:10:55;;;;;;;6.03;3.70;;;11.60;99.90;;;;;;4993059;28;20106;-72
2022/03/14 01:13:20;;;;;;;4.88;3.90;;;11.60;99.90;;;;;;4973138;28;20026;-72
2022/03/14 01:15:47;;;;;;;6.22;3.95;;;11.60;99.90;;;;;;5005490;28;20036;-72
2022/03/14 01:18:13;;;;;;;6.55;4.20;;;11.60;99.90;;;;;;5009818;28;20042;-72
2022/03/14 01:20:40;;;;;;;6.43;3.95;;;11.60;99.90;;;;;;5008121;28;20327;-73
2022/03/14 01:23:05;;;;;;;5.07;4.03;;;11.50;99.90;;;;;;5009525;28;20096;-72
2022/03/14 01:25:31;;;;;;;4.88;3.90;;;11.50;99.90;;;;;;5006321;28;20039;-72
2022/03/14 01:27:56;;;;;;;4.82;3.80;;;11.50;99.90;;;;;;4990356;28;20065;-73
2022/03/14 01:30:22;;;;;;;4.93;3.92;;;11.50;99.90;;;;;;5005980;28;20083;-74
2022/03/14 01:32:48;;;;;;;4.85;3.80;;;11.50;99.90;;;;;;4990450;28;20490;-72
2022/03/14 01:35:14;;;;;;;5.82;4.28;;;11.50;99.90;;;;;;5004717;28;20030;-72
2022/03/14 01:37:39;;;;;;;5.25;4.13;;;11.50;99.90;;;;;;5009147;28;20026;-72
2022/03/14 01:40:08;;;;;;;4.97;3.75;;;11.50;99.90;;;;;;4977132;28;20034;-72
2022/03/14 01:42:34;;;;;;;5.38;4.30;;;11.50;99.90;;;;;;5010149;28;20037;-72
2022/03/14 01:45:00;;;;;;;5.93;4.70;;;11.40;99.90;;;;;;5002571;28;20027;-72
2022/03/14 01:47:28;;;;;;;6.40;4.43;;;11.40;99.90;;;;;;4978835;28;20398;-72
2022/03/14 01:49:53;;;;;;;7.07;5.15;;;11.30;99.90;;;;;;5009083;28;20017;-72
2022/03/14 01:52:20;;;;;;;6.68;5.47;;;11.20;99.90;;;;;;5002315;28;20023;-72
2022/03/14 01:54:47;;;;;;;7.22;6.07;;;11.00;99.90;;;;;;4993112;28;20469;-72
2022/03/14 01:57:13;;;;;;;8.75;6.63;;;10.90;99.90;;;;;;4994033;28;20498;-73
2022/03/14 01:59:39;;;;;;;7.78;5.90;;;10.80;99.90;;;;;;5008318;28;20018;-72
2022/03/14 02:02:05;;;;;;;7.40;6.03;;;10.70;99.90;;;;;;4997287;28;20022;-72
2022/03/14 02:04:30;;;;;;;9.35;6.90;;;10.70;99.90;;;;;;5012940;28;20465;-71
2022/03/14 02:06:57;;;;;;;8.60;6.75;;;10.60;99.90;;;;;;5013182;28;20029;-72
2022/03/14 02:09:23;;;;;;;8.65;6.60;;;10.60;99.90;;;;;;5007210;28;20030;-72
2022/03/14 02:11:57;;;;;;;7.63;6.40;;;10.60;99.90;;;;;;5013046;28;20104;-71
2022/03/14 02:14:24;;;;;;;9.75;7.28;;;10.60;99.90;;;;;;5009698;28;20034;-71
2022/03/14 02:16:50;;;;;;;9.95;7.65;;;10.60;99.90;;;;;;4993402;28;20030;-71
2022/03/14 02:19:16;;;;;;;11.27;7.82;;;10.50;99.90;;;;;;5002672;28;20038;-72
2022/03/14 02:21:42;;;;;;;8.75;7.25;;;10.50;99.90;;;;;;5013138;28;20422;-72
2022/03/14 02:24:08;;;;;;;11.43;8.38;;;10.50;99.90;;;;;;4996193;28;20165;-72
2022/03/14 02:26:40;;;;;;;15.48;9.85;;;10.50;99.90;;;;;;4993734;28;20030;-71
2022/03/14 02:29:07;;;;;;;16.02;11.27;;;10.50;99.90;;;;;;5001735;28;20063;-72
2022/03/14 02:31:36;;;;;;;17.00;11.73;;;10.50;99.90;;;;;;5004196;28;20038;-72
2022/03/14 02:34:06;;;;;;;15.52;12.18;;;10.50;99.90;;;;;;4993547;28;20022;-72
2022/03/14 02:36:32;;;;;;;19.20;14.15;;;10.40;99.90;;;;;;4993382;28;20093;-72
2022/03/14 02:38:58;;;;;;;19.92;14.35;;;10.50;99.90;;;;;;5008006;28;20080;-72
2022/03/14 02:41:24;;;;;;;21.90;15.50;;;10.50;99.90;;;;;;5012695;28;20334;-72
2022/03/14 02:43:50;;;;;;;21.42;15.00;;;10.50;99.90;;;;;;5012633;28;20057;-72
2022/03/14 02:46:16;;;;;;;22.58;15.25;;;10.50;99.90;;;;;;4996640;28;20502;-72
2022/03/14 02:48:42;;;;;;;21.85;15.60;;;10.50;99.90;;;;;;4993373;28;20438;-72
2022/03/14 02:51:08;;;;;;;20.67;14.70;;;10.50;99.90;;;;;;5000473;28;20447;-72
2022/03/14 02:53:33;;;;;;;17.70;13.80;;;10.50;99.90;;;;;;5012949;28;20108;-72
2022/03/14 02:55:59;;;;;;;17.40;13.13;;;10.50;99.90;;;;;;4997586;28;20443;-72
2022/03/14 02:58:28;;;;;;;20.20;13.82;;;10.40;99.90;;;;;;4995999;28;20022;-72
2022/03/14 03:00:54;;;;;;;18.20;13.20;;;10.40;99.90;;;;;;5004923;28;20505;-72
2022/03/14 03:03:20;;;;;;;16.58;12.73;;;10.40;99.90;;;;;;5002885;28;20049;-72
2022/03/14 03:05:45;;;;;;;18.95;13.27;;;10.40;99.90;;;;;;5010914;28;20437;-71
2022/03/14 03:08:12;;;;;;;16.95;13.35;;;10.40;99.90;;;;;;5010522;28;20049;-72
2022/03/14 03:10:37;;;;;;;19.08;13.63;;;10.30;99.90;;;;;;4999539;28;20026;-72
2022/03/14 03:13:04;;;;;;;18.63;14.45;;;10.20;99.90;;;;;;5005484;28;20026;-72
2022/03/14 03:15:30;;;;;;;20.30;14.95;;;10.20;99.90;;;;;;4999729;28;20482;-72
2022/03/14 03:17:55;;;;;;;20.05;15.80;;;10.10;99.90;;;;;;5012203;28;20104;-72
2022/03/14 03:20:22;;;;;;;20.75;16.45;;;10.10;99.90;;;;;;4994163;28;20026;-73
2022/03/14 03:22:48;;;;;;;23.45;16.98;;;10.10;99.90;;;;;;4994164;28;20058;-72
2022/03/14 03:25:13;;;;;;;22.92;17.67;;;10.00;99.90;;;;;;5012006;28;20066;-72
2022/03/14 03:27:39;;;;;;;23.23;17.30;;;10.00;99.90;;;;;;5011879;28;20030;-72
2022/03/14 03:30:06;;;;;;;23.45;17.08;;;10.00;99.90;;;;;;5012299;28;20421;-72
2022/03/14 03:32:31;;;;;;;25.60;17.88;;;10.00;99.90;;;;;;5011540;28;20048;-72
2022/03/14 03:34:57;;;;;;;25.17;18.75;;;10.00;99.90;;;;;;5005540;28;20349;-72
2022/03/14 03:37:22;;;;;;;23.70;17.90;;;10.00;99.90;;;;;;4991998;28;20022;-72
2022/03/14 03:39:48;;;;;;;26.48;18.95;;;10.00;99.90;;;;;;4993171;28;20053;-72
2022/03/14 03:42:14;;;;;;;26.60;19.33;;;10.00;99.90;;;;;;4991652;28;20018;-73
2022/03/14 03:44:39;;;;;;;30.75;20.20;;;9.90;99.90;;;;;;4992932;28;20096;-72
2022/03/14 03:47:05;;;;;;;26.58;19.40;;;10.00;99.90;;;;;;5008025;28;20252;-73
2022/03/14 03:49:32;;;;;;;28.23;18.80;;;9.90;99.90;;;;;;5009688;28;20076;-72
2022/03/14 03:51:57;;;;;;;24.60;16.80;;;9.80;99.90;;;;;;4991576;28;20037;-72
2022/03/14 03:54:23;;;;;;;25.50;16.95;;;9.80;99.90;;;;;;5005451;28;20045;-72
2022/03/14 03:56:50;;;;;;;28.40;16.73;;;9.80;99.90;;;;;;4988939;28;20152;-72
2022/03/14 03:59:16;;;;;;;22.73;16.52;;;9.80;99.90;;;;;;5011532;28;20033;-72
2022/03/14 04:01:43;;;;;;;24.98;16.05;;;9.70;99.90;;;;;;4997194;28;20037;-72
2022/03/14 04:04:11;;;;;;;24.35;16.40;;;9.70;99.90;;;;;;5011390;28;20158;-72
2022/03/14 04:06:41;;;;;;;27.05;15.52;;;9.70;99.90;;;;;;5010692;28;20493;-72
2022/03/14 04:09:07;;;;;;;24.65;15.10;;;9.70;99.90;;;;;;4994416;28;20391;-72
2022/03/14 04:11:33;;;;;;;24.80;13.23;;;9.70;99.90;;;;;;5004695;28;20037;-72
2022/03/14 04:13:59;;;;;;;21.13;12.10;;;9.70;99.90;;;;;;5010766;28;20038;-72
2022/03/14 04:16:28;;;;;;;21.45;11.30;;;9.70;99.90;;;;;;4993857;28;20034;-72
2022/03/14 04:18:54;;;;;;;22.27;10.35;;;9.70;99.90;;;;;;5007063;28;20068;-72
2022/03/14 04:21:20;;;;;;;24.60;11.05;;;9.70;99.90;;;;;;4998468;28;20514;-72
2022/03/14 04:23:46;;;;;;;17.10;9.93;;;9.70;99.90;;;;;;5009620;28;20045;-73
2022/03/14 04:26:12;;;;;;;19.15;10.82;;;9.60;99.90;;;;;;5009004;28;20045;-72
2022/03/14 04:28:39;;;;;;;17.33;10.95;;;9.60;99.90;;;;;;5010866;28;20460;-72
2022/03/14 04:31:09;;;;;;;21.23;11.43;;;9.60;99.90;;;;;;5001793;28;20065;-73
2022/03/14 04:33:35;;;;;;;22.73;11.80;;;9.60;99.90;;;;;;4990753;28;20030;-72
2022/03/14 04:36:01;;;;;;;25.20;12.75;;;9.50;99.90;;;;;;4990934;28;20042;-72
2022/03/14 04:38:28;;;;;;;27.33;14.07;;;9.60;99.90;;;;;;4990799;28;20030;-72
2022/03/14 04:40:54;;;;;;;30.45;14.07;;;9.60;99.90;;;;;;5000192;28;20442;-72
2022/03/14 04:43:21;;;;;;;27.52;14.60;;;9.50;99.90;;;;;;4990923;28;20018;-72
2022/03/14 04:45:48;;;;;;;27.33;15.15;;;9.50;99.90;;;;;;4997182;28;20034;-73
2022/03/14 04:48:14;;;;;;;29.67;14.93;;;9.60;99.90;;;;;;4992834;28;20125;-72
2022/03/14 04:50:41;;;;;;;29.52;15.88;;;9.60;99.90;;;;;;5009557;28;20037;-73
2022/03/14 04:53:07;;;;;;;31.65;16.45;;;9.60;99.90;;;;;;4990488;28;20050;-73
2022/03/14 04:55:37;;;;;;;34.97;16.45;;;9.60;99.90;;;;;;4999383;28;20025;-72
2022/03/14 04:58:03;;;;;;;33.95;17.23;;;9.50;99.90;;;;;;5009425;28;20088;-72
2022/03/14 05:00:29;;;;;;;29.58;16.65;;;9.50;99.90;;;;;;4992179;28;20358;-72
2022/03/14 05:03:06;;;;;;;27.27;16.42;;;9.50;99.90;;;;;;4992195;28;20473;-73
2022/03/14 05:05:33;;;;;;;32.30;16.45;;;9.50;99.90;;;;;;5001700;28;20030;-72
2022/03/14 05:08:00;;;;;;;32.90;17.30;;;9.50;99.90;;;;;;4990654;28;20542;-72
2022/03/14 05:10:26;;;;;;;33.15;18.05;;;9.50;99.90;;;;;;4973118;28;20026;-72
2022/03/14 05:12:51;;;;;;;29.40;17.73;;;9.40;99.90;;;;;;4991652;28;20026;-72
2022/03/14 05:15:17;;;;;;;30.13;18.10;;;9.40;99.90;;;;;;4990706;28;20038;-73
2022/03/14 05:17:44;;;;;;;33.80;17.80;;;9.40;99.90;;;;;;4991948;28;20494;-72
2022/03/14 05:20:10;;;;;;;34.40;19.58;;;9.40;99.90;;;;;;4977695;28;20396;-72
2022/03/14 05:22:48;;;;;;;31.58;19.13;;;9.40;99.90;;;;;;5009200;28;20030;-72
2022/03/14 05:25:21;;;;;;;30.25;18.25;;;9.40;99.90;;;;;;5008429;28;20041;-72
2022/03/14 05:27:47;;;;;;;29.65;17.90;;;9.40;99.90;;;;;;5003114;28;20031;-72
2022/03/14 05:30:13;;;;;;;28.17;17.15;;;9.30;99.90;;;;;;5005597;28;20176;-72
2022/03/14 05:32:40;;;;;;;30.63;17.70;;;9.30;99.90;;;;;;4996175;28;20105;-72
2022/03/14 05:35:07;;;;;;;29.40;17.88;;;9.30;99.90;;;;;;5009509;28;20029;-72
2022/03/14 05:37:33;;;;;;;28.70;17.13;;;9.30;99.90;;;;;;5009994;28;20034;-72
2022/03/14 05:39:59;;;;;;;27.65;16.58;;;9.20;99.90;;;;;;5006500;28;20030;-73
2022/03/14 05:42:25;;;;;;;27.80;17.55;;;9.20;99.90;;;;;;5008486;28;20018;-72
2022/03/14 05:44:51;;;;;;;26.95;16.85;;;9.20;99.90;;;;;;4989950;28;20026;-72
2022/03/14 05:47:18;;;;;;;29.15;16.55;;;9.10;99.90;;;;;;5000291;28;20037;-72
2022/03/14 05:49:44;;;;;;;25.10;16.50;;;9.20;99.90;;;;;;5002222;28;20018;-73
2022/03/14 05:52:11;;;;;;;28.17;16.38;;;9.10;99.90;;;;;;5004690;28;20101;-73
2022/03/14 05:54:38;;;;;;;25.98;16.27;;;9.10;99.90;;;;;;5002925;28;20036;-72
2022/03/14 05:57:04;;;;;;;29.13;17.25;;;9.10;99.90;;;;;;5003954;28;20024;-72
2022/03/14 05:59:29;;;;;;;30.50;17.35;;;9.10;99.90;;;;;;5007774;28;20105;-72
2022/03/14 06:01:57;;;;;;;30.60;17.17;;;9.10;99.90;;;;;;5003578;28;20125;-73
2022/03/14 06:04:23;;;;;;;29.60;18.02;;;9.10;99.90;;;;;;5001913;28;20034;-73
2022/03/14 06:06:48;;;;;;;29.25;17.33;;;9.10;99.90;;;;;;4979794;28;20031;-72
2022/03/14 06:09:14;;;;;;;27.83;17.88;;;9.10;99.90;;;;;;4999951;28;20280;-72
2022/03/14 06:11:40;;;;;;;28.92;17.35;;;9.10;99.90;;;;;;5005106;28;20029;-72
2022/03/14 06:14:06;;;;;;;27.67;17.33;;;9.10;99.90;;;;;;4996508;28;20030;-72
2022/03/14 06:16:32;;;;;;;29.77;17.73;;;9.10;99.90;;;;;;5001259;28;20028;-72
2022/03/14 06:18:57;;;;;;;26.98;17.50;;;9.10;99.90;;;;;;5001235;28;20096;-72
2022/03/14 06:21:23;;;;;;;28.60;17.67;;;9.10;99.90;;;;;;4998324;28;20064;-73
2022/03/14 06:23:48;;;;;;;28.23;17.25;;;9.10;99.90;;;;;;4997774;28;20070;-72
2022/03/14 06:26:15;;;;;;;27.45;17.98;;;9.10;99.90;;;;;;4991191;28;20153;-72
2022/03/14 06:28:42;;;;;;;29.38;17.60;;;9.10;99.90;;;;;;4999935;28;20030;-72
2022/03/14 06:31:11;;;;;;;28.05;17.13;;;9.10;99.90;;;;;;4995848;28;20054;-71
2022/03/14 06:33:37;;;;;;;25.52;17.10;;;9.10;99.90;;;;;;4993013;28;20040;-72
2022/03/14 06:36:03;;;;;;;28.42;17.67;;;9.10;99.90;;;;;;4997205;28;20022;-72
2022/03/14 06:38:29;;;;;;;27.48;17.08;;;9.10;99.90;;;;;;5001032;28;20494;-71
2022/03/14 06:40:56;;;;;;;28.00;17.52;;;9.10;99.90;;;;;;5000120;28;20346;-72
2022/03/14 06:43:22;;;;;;;27.25;16.92;;;9.10;99.90;;;;;;5002403;28;20469;-72
2022/03/14 06:45:48;;;;;;;26.10;17.38;;;9.20;99.90;;;;;;5007238;28;20022;-71
2022/03/14 06:48:14;;;;;;;23.55;16.65;;;9.10;99.90;;;;;;4998341;28;20372;-73
2022/03/14 06:50:40;;;;;;;22.83;16.95;;;9.10;99.90;;;;;;4996170;28;20035;-71
2022/03/14 06:53:06;;;;;;;25.63;16.83;;;9.10;99.90;;;;;;5000669;28;20022;-71
2022/03/14 06:55:32;;;;;;;24.75;16.75;;;9.20;99.90;;;;;;4987347;28;20064;-72
2022/03/14 06:57:58;;;;;;;23.08;15.70;;;9.20;99.90;;;;;;5002078;28;20026;-72
2022/03/14 07:00:24;;;;;;;27.27;16.20;;;9.10;99.90;;;;;;5002998;28;20035;-72
2022/03/14 07:02:49;;;;;;;23.95;15.73;;;9.20;99.90;;;;;;4984892;28;20116;-71
2022/03/14 07:05:20;;;;;;;22.95;16.05;;;9.10;99.90;;;;;;4994258;28;20030;-72
2022/03/14 07:07:48;;;;;;;27.35;16.27;;;9.20;99.90;;;;;;4995737;28;20057;-72
2022/03/14 07:10:14;;;;;;;23.90;16.30;;;9.20;99.90;;;;;;4992904;28;20030;-73
2022/03/14 07:12:48;;;;;;;24.70;15.65;;;9.20;99.90;;;;;;4992372;28;20018;-73
2022/03/14 07:15:21;;;;;;;24.35;15.95;;;9.20;99.90;;;;;;5002958;28;20276;-73
2022/03/14 07:17:47;;;;;;;25.17;15.60;;;9.30;99.90;;;;;;4997056;28;20053;-73
2022/03/14 07:20:13;;;;;;;24.77;15.45;;;9.30;99.90;;;;;;4969501;28;20022;-73
2022/03/14 07:22:56;;;;;;;23.90;15.73;;;9.30;99.90;;;;;;4998421;28;20026;-73
2022/03/14 07:25:34;;;;;;;27.55;16.35;;;9.30;99.90;;;;;;5003530;28;20478;-74
2022/03/14 07:28:02;;;;;;;25.88;14.85;;;9.40;99.90;;;;;;4994062;28;20259;-71
2022/03/14 07:30:27;;;;;;;22.63;15.48;;;9.40;99.90;;;;;;4973958;28;20091;-72
2022/03/14 07:32:54;;;;;;;24.75;15.18;;;9.40;99.90;;;;;;4990786;28;20458;-71
2022/03/14 07:35:20;;;;;;;27.20;16.50;;;9.40;99.90;;;;;;4994372;28;20124;-72
2022/03/14 07:37:46;;;;;;;26.75;16.70;;;9.50;99.90;;;;;;4984388;28;20029;-72
2022/03/14 07:40:15;;;;;;;28.77;16.85;;;9.50;99.90;;;;;;5002711;28;20046;-72
2022/03/14 07:42:43;;;;;;;24.15;15.45;;;9.50;99.90;;;;;;4992316;28;20036;-72
2022/03/14 07:45:10;;;;;;;32.42;19.02;;;9.50;99.90;;;;;;4992777;28;20124;-72
2022/03/14 07:47:36;;;;;;;32.10;19.60;;;9.50;99.90;;;;;;4983605;28;20038;-72
2022/03/14 07:50:05;;;;;;;32.25;19.20;;;9.50;99.90;;;;;;4993163;28;20019;-72
2022/03/14 07:52:31;;;;;;;31.48;19.40;;;9.50;99.90;;;;;;5002728;28;20041;-72
2022/03/14 07:54:56;;;;;;;30.42;18.95;;;9.50;99.90;;;;;;5000056;28;20514;-73
2022/03/14 07:57:22;;;;;;;30.83;18.73;;;9.60;99.90;;;;;;5001255;28;20113;-72
2022/03/14 07:59:48;;;;;;;36.28;19.40;;;9.60;99.90;;;;;;4997116;28;20421;-71
2022/03/14 08:02:13;;;;;;;31.13;18.23;;;9.60;99.90;;;;;;5010973;28;20022;-72
2022/03/14 08:04:40;;;;;;;31.50;19.27;;;9.60;99.90;;;;;;5004141;28;20500;-72
2022/03/14 08:07:06;;;;;;;34.60;18.88;;;9.60;99.90;;;;;;4997236;28;20026;-72
2022/03/14 08:09:32;;;;;;;35.80;20.70;;;9.60;99.90;;;;;;4999765;28;20030;-73
2022/03/14 08:12:04;;;;;;;34.33;20.13;;;9.60;99.90;;;;;;4992646;28;20050;-72
2022/03/14 08:14:33;;;;;;;33.40;19.98;;;9.60;99.90;;;;;;5001693;28;20503;-72
2022/03/14 08:16:59;;;;;;;34.58;20.23;;;9.60;99.90;;;;;;5001052;28;20049;-72
2022/03/14 08:19:25;;;;;;;31.90;20.10;;;9.60;99.90;;;;;;4996694;28;20034;-72
2022/03/14 08:21:51;;;;;;;34.47;19.95;;;9.60;99.90;;;;;;4998844;28;20032;-72
2022/03/14 08:24:17;;;;;;;34.83;20.92;;;9.50;99.90;;;;;;4990553;28;20170;-72
2022/03/14 08:26:43;;;;;;;36.70;21.45;;;9.50;99.90;;;;;;4997017;28;20041;-73
2022/03/14 08:29:09;;;;;;;37.30;20.83;;;9.50;99.90;;;;;;5005499;28;20018;-73
2022/03/14 08:31:35;;;;;;;35.90;20.85;;;9.50;99.90;;;;;;4989525;28;20607;-73
2022/03/14 08:34:01;;;;;;;32.38;19.95;;;9.60;99.90;;;;;;5004196;28;20029;-72
2022/03/14 08:36:27;;;;;;;31.67;19.52;;;9.60;99.90;;;;;;4985221;28;20101;-73
2022/03/14 08:38:53;;;;;;;36.33;18.83;;;9.60;99.90;;;;;;4990831;28;20392;-73
2022/03/14 08:41:19;;;;;;;30.00;19.27;;;9.60;99.90;;;;;;4986076;28;20033;-73
2022/03/14 08:43:45;;;;;;;31.75;17.67;;;9.70;99.90;;;;;;4999652;28;20474;-72
2022/03/14 08:46:12;;;;;;;34.30;18.23;;;9.70;99.90;;;;;;5002954;28;20480;-73
2022/03/14 08:48:37;;;;;;;32.10;18.00;;;9.70;99.90;;;;;;4999677;28;20024;-72
2022/03/14 08:51:03;;;;;;;30.13;18.52;;;9.70;99.90;;;;;;4996732;28;20022;-73
2022/03/14 08:53:30;;;;;;;32.95;18.40;;;9.80;99.90;;;;;;4996721;28;20114;-72
2022/03/14 08:55:56;;;;;;;48.83;24.42;;;9.80;99.90;;;;;;5004051;28;20034;-72
2022/03/14 08:58:22;;;;;;;42.05;22.85;;;9.90;99.90;;;;;;5000196;28;20089;-75
2022/03/14 09:00:49;;;;;;;43.08;22.17;;;9.90;99.90;;;;;;5004452;28;20482;-73
2022/03/14 09:03:15;;;;;;;37.35;22.60;;;10.00;99.90;;;;;;4996487;28;20272;-73
2022/03/14 09:05:40;;;;;;;40.85;21.83;;;10.00;99.90;;;;;;5002705;28;20119;-74
2022/03/14 09:08:06;;;;;;;37.05;21.42;;;10.00;99.90;;;;;;5003237;28;20030;-73
2022/03/14 09:10:36;;;;;;;37.47;18.73;;;10.10;99.90;;;;;;4992141;28;20027;-73
2022/03/14 09:13:02;;;;;;;33.42;17.85;;;10.10;99.90;;;;;;5002592;28;20041;-73
2022/03/14 09:15:28;;;;;;;30.75;16.73;;;10.20;99.90;;;;;;4998312;28;20440;-73
2022/03/14 09:17:59;;;;;;;26.15;15.98;;;10.20;99.90;;;;;;4987103;28;20358;-73
2022/03/14 09:20:26;;;;;;;29.70;15.85;;;10.20;99.90;;;;;;4996076;28;20030;-73
2022/03/14 09:22:53;;;;;;;27.02;15.55;;;10.30;99.90;;;;;;4989480;28;20079;-73
2022/03/14 09:25:21;;;;;;;28.00;14.70;;;10.30;99.90;;;;;;4994781;28;20479;-73
2022/03/14 09:27:48;;;;;;;22.13;14.30;;;10.40;99.90;;;;;;4997643;28;20029;-73
2022/03/14 09:30:16;;;;;;;28.00;15.60;;;10.40;99.90;;;;;;4999289;28;20045;-73
2022/03/14 09:32:42;;;;;;;27.85;16.42;;;10.40;99.90;;;;;;5005823;28;20350;-73
2022/03/14 09:35:09;;;;;;;24.27;14.00;;;10.40;99.90;;;;;;4999693;28;20030;-74
2022/03/14 09:37:39;;;;;;;23.55;13.50;;;10.40;99.90;;;;;;4973994;28;20038;-73
2022/03/14 09:40:10;;;;;;;25.85;14.60;;;10.50;99.90;;;;;;4998010;28;20041;-74
2022/03/14 09:42:38;;;;;;;28.10;15.43;;;10.50;99.90;;;;;;5005518;28;20505;-73
2022/03/14 09:45:05;;;;;;;27.00;14.85;;;10.50;99.90;;;;;;4989916;28;20030;-74
2022/03/14 09:47:37;;;;;;;28.77;14.23;;;10.60;99.90;;;;;;4990483;28;20513;-72
2022/03/14 09:50:07;;;;;;;25.95;14.07;;;10.60;99.90;;;;;;4994067;28;20465;-73
2022/03/14 09:52:35;;;;;;;28.00;13.88;;;10.70;99.90;;;;;;4992248;28;20390;-72
2022/03/14 09:55:00;;;;;;;24.13;14.10;;;10.70;99.90;;;;;;4995273;28;20029;-72
2022/03/14 09:57:27;;;;;;;25.15;14.07;;;10.70;99.90;;;;;;5005405;28;20229;-72
2022/03/14 09:59:54;;;;;;;25.85;13.55;;;10.70;99.90;;;;;;5001768;28;20030;-71
2022/03/14 10:02:20;;;;;;;28.05;13.00;;;10.70;99.90;;;;;;4998830;28;20030;-70
2022/03/14 10:04:46;;;;;;;22.73;12.65;;;10.70;99.90;;;;;;5006032;28;20030;-72
2022/03/14 10:07:11;;;;;;;22.50;12.30;;;10.80;99.90;;;;;;5002588;28;20528;-72
2022/03/14 10:09:37;;;;;;;28.10;12.23;;;10.80;99.90;;;;;;4998272;28;20025;-70
2022/03/14 10:12:04;;;;;;;25.00;12.23;;;10.90;99.90;;;;;;4989996;28;20062;-70
2022/03/14 10:14:30;;;;;;;27.33;12.63;;;10.90;99.90;;;;;;4991188;28;20038;-71
2022/03/14 10:16:56;;;;;;;23.83;12.07;;;11.00;99.90;;;;;;4993327;28;20080;-71
2022/03/14 10:19:31;;;;;;;30.65;13.40;;;11.10;99.90;;;;;;4993312;28;20031;-71
2022/03/14 10:22:10;;;;;;;23.20;12.80;;;11.20;99.90;;;;;;4985542;28;20486;-71
2022/03/14 10:24:38;;;;;;;25.48;11.95;;;11.20;99.90;;;;;;4996768;28;20045;-71
2022/03/14 10:27:05;;;;;;;22.05;12.25;;;11.30;99.90;;;;;;4993609;28;20022;-71
2022/03/14 10:29:31;;;;;;;21.90;11.68;;;11.40;99.90;;;;;;4993424;28;20027;-71
2022/03/14 10:31:56;;;;;;;28.23;12.70;;;11.50;99.90;;;;;;4993343;28;20089;-71
2022/03/14 10:34:23;;;;;;;26.38;12.27;;;11.60;99.90;;;;;;5004263;28;20427;-71
2022/03/14 10:36:51;;;;;;;25.17;11.50;;;11.70;99.90;;;;;;5011590;28;20026;-71
2022/03/14 10:39:32;;;;;;;23.77;11.43;;;11.70;99.90;;;;;;4992840;28;20423;-71
2022/03/14 10:42:05;;;;;;;24.77;11.38;;;11.80;99.90;;;;;;4992848;28;20050;-72
2022/03/14 10:44:31;;;;;;;20.48;10.68;;;11.80;99.90;;;;;;4975306;28;20085;-72
2022/03/14 10:46:59;;;;;;;25.05;11.98;;;11.80;99.90;;;;;;5001677;28;20032;-72
2022/03/14 10:49:30;;;;;;;23.20;11.77;;;11.70;99.90;;;;;;4993163;28;20557;-72
2022/03/14 10:52:01;;;;;;;25.38;11.85;;;11.80;99.90;;;;;;4975513;28;20050;-72
2022/03/14 10:54:27;;;;;;;24.75;12.95;;;11.80;99.90;;;;;;4994839;28;20053;-72
2022/03/14 10:57:09;;;;;;;24.20;12.02;;;11.90;99.90;;;;;;4999750;28;20022;-71
2022/03/14 10:59:43;;;;;;;21.75;12.48;;;11.90;99.90;;;;;;5005134;28;20101;-72
2022/03/14 11:02:11;;;;;;;28.27;12.88;;;11.90;99.90;;;;;;5012351;28;20030;-72
2022/03/14 11:04:59;;;;;;;23.38;11.98;;;12.00;99.90;;;;;;4997885;28;20049;-72
2022/03/14 11:07:27;;;;;;;23.23;11.73;;;12.00;99.90;;;;;;4990509;28;20046;-72
2022/03/14 11:09:58;;;;;;;27.55;11.50;;;12.00;99.90;;;;;;4973283;28;20125;-72
2022/03/14 11:12:26;;;;;;;25.38;12.10;;;12.10;99.90;;;;;;5009295;28;20026;-72
2022/03/14 11:14:58;;;;;;;23.73;10.75;;;12.20;99.90;;;;;;5009854;28;20053;-72
2022/03/14 11:17:24;;;;;;;19.23;10.48;;;12.10;99.90;;;;;;5006358;28;20144;-72
2022/03/14 11:19:51;;;;;;;24.48;11.48;;;12.20;99.90;;;;;;5004887;28;20034;-72
2022/03/14 11:22:17;;;;;;;21.80;11.00;;;12.20;99.90;;;;;;5010197;28;20029;-72
2022/03/14 11:24:45;;;;;;;25.80;11.95;;;12.20;99.90;;;;;;5009298;28;20030;-72
2022/03/14 11:27:17;;;;;;;21.70;10.55;;;12.30;99.90;;;;;;5007595;28;20038;-72
2022/03/14 11:29:44;;;;;;;23.30;11.38;;;12.30;99.90;;;;;;5010692;28;20038;-71
2022/03/14 11:32:10;;;;;;;24.23;12.00;;;12.30;99.90;;;;;;4993337;28;20109;-71
2022/03/14 11:34:36;;;;;;;24.60;12.98;;;12.30;99.90;;;;;;4998059;28;20093;-72
2022/03/14 11:37:03;;;;;;;27.40;16.38;;;12.30;99.90;;;;;;4992597;28;20019;-72
2022/03/14 11:39:29;;;;;;;29.77;16.15;;;12.40;99.90;;;;;;4989061;28;20477;-71
2022/03/14 11:41:55;;;;;;;35.95;18.00;;;12.40;99.90;;;;;;5001608;28;20212;-72
2022/03/14 11:44:24;;;;;;;29.50;15.05;;;12.40;99.90;;;;;;5008818;28;20489;-72
2022/03/14 11:46:52;;;;;;;26.27;12.57;;;12.30;99.90;;;;;;4981027;28;20386;-71
2022/03/14 11:49:18;;;;;;;30.05;13.63;;;12.20;99.90;;;;;;5006014;28;20022;-71
2022/03/14 11:51:44;;;;;;;29.95;14.02;;;12.20;99.90;;;;;;5009768;28;20029;-72
2022/03/14 11:54:11;;;;;;;27.08;14.48;;;12.30;99.90;;;;;;5011223;28;20084;-72
2022/03/14 11:56:38;;;;;;;25.15;13.77;;;12.20;99.90;;;;;;5000250;28;20018;-71
2022/03/14 11:59:10;;;;;;;26.80;12.25;;;12.20;99.90;;;;;;5011592;28;20024;-71
2022/03/14 12:01:50;;;;;;;28.83;12.43;;;12.20;99.90;;;;;;5010367;28;20120;-72
2022/03/14 12:04:30;;;;;;;24.55;12.90;;;12.20;99.90;;;;;;4986918;28;20054;-72
2022/03/14 12:06:57;;;;;;;29.02;11.88;;;12.20;99.90;;;;;;5004398;28;20402;-72
2022/03/14 12:09:29;;;;;;;23.50;11.50;;;12.20;99.90;;;;;;5008002;28;20171;-72
2022/03/14 12:11:59;;;;;;;26.25;11.00;;;12.20;99.90;;;;;;4979864;28;20089;-72
2022/03/14 12:14:45;;;;;;;28.00;11.07;;;12.30;99.90;;;;;;4995011;28;20410;-72
2022/03/14 12:17:14;;;;;;;23.50;10.95;;;12.30;99.90;;;;;;4998822;28;20061;-72
2022/03/14 12:19:44;;;;;;;28.73;12.30;;;12.30;99.90;;;;;;5000792;28;20359;-71
2022/03/14 12:22:16;;;;;;;26.63;12.63;;;12.30;99.90;;;;;;5009055;28;20076;-71
2022/03/14 12:24:46;;;;;;;27.73;12.38;;;12.20;99.90;;;;;;5008748;28;20022;-71
2022/03/14 12:27:16;;;;;;;21.92;11.48;;;12.20;99.90;;;;;;4989841;28;20105;-71
2022/03/14 12:29:42;;;;;;;24.13;11.65;;;12.20;99.90;;;;;;4991218;28;20387;-71
2022/03/14 12:32:26;;;;;;;27.77;11.63;;;12.20;99.90;;;;;;4990740;28;20022;-72
2022/03/14 12:35:12;;;;;;;25.52;12.63;;;12.30;99.90;;;;;;4998650;28;20030;-72